Time;durP1;ratioP1;P1;durP2;ratioP2;P2;SDS_P1;SDS_P2;PMS_P1;PMS_P2;Temp;Humidity;BMP_temperature;BMP_pressure;BME280_temperature;BME280_humidity;BME280_pressure;Samples;Min_cycle;Max_cycle;Signal;HPM_P1;HPM_P2
2021/06/20 00:05:52;;;;;;;7.48;6.78;;;;;;;20.73;62.46;98473.02;262657;1089;26258;-74
2021/06/20 00:12:44;;;;;;;6.98;6.30;;;;;;;20.68;63.11;98471.40;261684;1088;22878;-73
2021/06/20 00:18:52;;;;;;;;;;;;;;;;;;;;;
2021/06/20 00:25:24;;;;;;;7.47;6.20;;;;;;;20.48;63.36;98467.92;262587;1090;22812;-73
2021/06/20 00:31:23;;;;;;;8.00;6.40;;;;;;;20.47;64.11;98465.58;262802;1090;22831;-72
2021/06/20 00:38:03;;;;;;;;;;;;;;;;;;;;;
2021/06/20 00:44:03;;;;;;;7.25;6.40;;;;;;;20.41;64.84;98451.48;261826;1090;22794;-73
2021/06/20 00:50:32;;;;;;;7.40;6.15;;;;;;;20.38;64.75;98452.19;262556;1090;22847;-73
2021/06/20 00:56:56;;;;;;;;;;;;;;;;;;;;;
2021/06/20 01:03:28;;;;;;;;;;;;;;;;;;;;;
2021/06/20 01:09:45;;;;;;;6.70;5.95;;;;;;;20.09;65.65;98434.56;262460;1090;22815;-73
2021/06/20 01:16:18;;;;;;;;;;;;;;;;;;;;;
2021/06/20 01:23:26;;;;;;;;;;;;;;;;;;;;;
2021/06/20 01:30:27;;;;;;;7.50;6.73;;;;;;;19.92;66.45;98430.36;261633;1090;22914;-74
2021/06/20 01:43:56;;;;;;;;;;;;;;;;;;;;;
2021/06/20 01:56:27;;;;;;;7.90;6.20;;;;;;;19.65;67.46;98403.81;262668;1089;22785;-74
2021/06/20 02:02:52;;;;;;;;;;;;;;;;;;;;;
2021/06/20 02:22:26;;;;;;;8.73;6.27;;;;;;;19.37;68.53;98381.52;261601;1090;25880;-73
2021/06/20 02:29:01;;;;;;;7.43;6.63;;;;;;;19.29;68.78;98381.38;261779;1088;22786;-73
2021/06/20 02:35:25;;;;;;;;;;;;;;;;;;;;;
2021/06/20 02:42:11;;;;;;;8.85;7.35;;;;;;;19.13;69.36;98386.84;262631;1090;22815;-72
2021/06/20 02:55:45;;;;;;;;;;;;;;;;;;;;;
2021/06/20 03:02:35;;;;;;;8.05;7.25;;;;;;;19.09;69.37;98390.63;262622;1089;22741;-73
2021/06/20 03:09:35;;;;;;;7.20;6.00;;;;;;;19.03;69.40;98392.02;261931;1090;22822;-72
2021/06/20 03:16:23;;;;;;;;;;;;;;;;;;;;;
2021/06/20 03:23:11;;;;;;;7.60;6.80;;;;;;;19.36;69.66;98374.50;262300;1089;26270;-72
2021/06/20 03:50:44;;;;;;;;;;;;;;;;;;;;;
2021/06/20 03:57:17;;;;;;;;;;;;;;;;;;;;;
2021/06/20 04:04:08;;;;;;;7.50;6.33;;;;;;;22.51;64.01;98400.52;261718;1090;22808;-73
2021/06/20 04:10:47;;;;;;;6.88;6.23;;;;;;;22.82;62.98;98414.78;262774;1090;22830;-72
2021/06/20 04:17:48;;;;;;;7.25;6.55;;;;;;;22.65;62.80;98418.95;262573;1089;22806;-73
2021/06/20 04:24:33;;;;;;;6.28;5.78;;;;;;;22.78;62.48;98412.05;262494;1090;22802;-73
2021/06/20 04:30:46;;;;;;;6.60;6.00;;;;;;;22.62;61.66;98409.57;262953;1089;22943;-73
2021/06/20 04:36:16;;;;;;;6.83;6.08;;;;;;;22.42;61.86;98416.44;262057;1089;22985;-73
2021/06/20 04:41:53;;;;;;;6.63;6.03;;;;;;;22.31;61.82;98417.08;262831;1090;22803;-73
2021/06/20 04:47:24;;;;;;;6.10;5.45;;;;;;;22.31;61.68;98422.53;262455;1089;22805;-73
2021/06/20 04:53:07;;;;;;;6.20;5.60;;;;;;;22.25;61.46;98415.86;262063;1090;22836;-73
2021/06/20 04:59:29;;;;;;;5.65;5.15;;;;;;;22.19;61.79;98417.38;262391;1090;22680;-73
2021/06/20 05:06:07;;;;;;;5.68;5.15;;;;;;;22.19;61.82;98428.28;261989;1090;22844;-72
2021/06/20 05:11:59;;;;;;;6.08;5.20;;;;;;;22.28;62.00;98447.84;262741;1090;22873;-74
2021/06/20 05:18:14;;;;;;;9.13;6.03;;;;;;;22.32;61.63;98440.48;262260;1090;23007;-72
2021/06/20 05:24:23;;;;;;;7.60;5.40;;;;;;;22.45;61.36;98449.20;262633;1089;22782;-73
2021/06/20 05:30:12;;;;;;;5.63;5.13;;;;;;;22.55;61.22;98456.72;261727;1090;22880;-73
2021/06/20 05:35:57;;;;;;;5.83;5.30;;;;;;;22.76;61.05;98449.08;262596;1089;22878;-73
2021/06/20 05:42:13;;;;;;;5.45;4.93;;;;;;;22.95;60.44;98453.53;261985;1089;27105;-72
2021/06/20 05:48:20;;;;;;;6.75;5.93;;;;;;;23.08;60.17;98460.23;262342;1089;26398;-73
2021/06/20 05:54:59;;;;;;;;;;;;;;;;;;;;;
2021/06/20 06:00:22;;;;;;;6.00;5.40;;;;;;;23.55;59.53;98483.20;262322;1090;25765;-74
2021/06/20 06:05:34;;;;;;;6.17;5.57;;;;;;;23.77;58.74;98479.78;262593;1090;22803;-73
2021/06/20 06:10:47;;;;;;;6.83;6.10;;;;;;;23.90;58.67;98479.09;262801;1090;24307;-71
2021/06/20 06:15:55;;;;;;;6.18;5.58;;;;;;;24.05;58.03;98463.52;262153;1090;22950;-74
2021/06/20 06:21:29;;;;;;;6.73;6.13;;;;;;;24.22;57.97;98461.22;262637;1089;24363;-72
2021/06/20 06:26:56;;;;;;;6.95;6.35;;;;;;;24.41;57.65;98441.70;262619;1089;22896;-73
2021/06/20 06:32:12;;;;;;;7.20;6.50;;;;;;;24.58;57.37;98431.13;261822;1090;22808;-73
2021/06/20 06:37:42;;;;;;;;;;;;;;;;;;;;;
2021/06/20 06:43:17;;;;;;;7.40;6.65;;;;;;;24.93;57.35;98448.75;261992;1090;22791;-73
2021/06/20 06:48:33;;;;;;;7.95;6.75;;;;;;;25.14;57.18;98447.97;262326;1089;22966;-73
2021/06/20 06:53:39;;;;;;;7.30;6.63;;;;;;;25.35;56.55;98451.84;261732;1089;22870;-73
2021/06/20 06:58:55;;;;;;;;;;;;;;;25.55;56.21;98454.94;262649;1090;22797;-75
2021/06/20 07:04:03;;;;;;;7.70;7.00;;;;;;;25.72;55.54;98439.59;262692;1089;24155;-74
2021/06/20 07:09:10;;;;;;;7.28;6.58;;;;;;;25.89;55.33;98427.73;262670;1090;22913;-73
2021/06/20 07:14:35;;;;;;;7.75;7.05;;;;;;;26.06;55.09;98431.59;261811;1090;22786;-74
2021/06/20 07:19:43;;;;;;;7.90;7.10;;;;;;;26.28;54.63;98423.23;262313;1090;26257;-72
2021/06/20 07:24:51;;;;;;;7.90;7.10;;;;;;;26.49;54.35;98427.79;262316;1090;24077;-73
2021/06/20 07:30:10;;;;;;;7.17;6.57;;;;;;;26.57;53.34;98425.75;261845;1090;22923;-74
2021/06/20 07:35:25;;;;;;;;;;;;;;;;;;;;;
2021/06/20 07:40:42;;;;;;;6.95;6.35;;;;;;;26.87;53.27;98416.13;262176;1089;22950;-74
2021/06/20 07:45:50;;;;;;;6.95;6.35;;;;;;;27.07;52.42;98416.31;262475;1089;22827;-73
2021/06/20 07:50:57;;;;;;;7.03;6.38;;;;;;;27.22;51.57;98417.72;261870;1090;22791;-73
2021/06/20 07:56:05;;;;;;;7.50;6.33;;;;;;;27.31;50.42;98414.50;262849;1089;25881;-72
2021/06/20 08:01:15;;;;;;;6.85;6.35;;;;;;;27.52;50.52;98420.95;262694;1090;26366;-73
2021/06/20 08:06:30;;;;;;;6.80;6.20;;;;;;;27.74;50.13;98432.48;262064;1090;25883;-72
2021/06/20 08:11:37;;;;;;;6.30;5.80;;;;;;;27.97;49.21;98426.30;262364;1090;22943;-72
2021/06/20 08:16:42;;;;;;;7.83;5.97;;;;;;;28.12;49.12;98419.42;262649;1090;24035;-74
2021/06/20 08:21:47;;;;;;;8.45;6.10;;;;;;;28.33;48.50;98412.01;262792;1089;25902;-73
2021/06/20 08:26:50;;;;;;;5.95;5.35;;;;;;;28.46;48.20;98409.47;262684;1090;22837;-71
2021/06/20 08:31:55;;;;;;;5.93;5.53;;;;;;;28.65;47.91;98416.25;262686;1089;22988;-72
2021/06/20 08:37:00;;;;;;;6.65;6.05;;;;;;;28.73;47.61;98409.43;262887;1089;25989;-74
2021/06/20 08:42:05;;;;;;;6.58;5.95;;;;;;;28.84;46.87;98404.51;262840;1090;22789;-72
2021/06/20 08:47:13;;;;;;;6.18;5.58;;;;;;;28.90;46.44;98401.27;262863;1090;25996;-73
2021/06/20 08:52:17;;;;;;;5.75;5.33;;;;;;;29.06;46.25;98401.38;262741;1090;22933;-73
2021/06/20 08:57:38;;;;;;;5.30;4.90;;;;;;;29.18;45.65;98381.45;262436;1090;26002;-73
2021/06/20 09:02:59;;;;;;;;;;;;;;;29.17;45.09;98370.81;262641;1090;24179;-74
2021/06/20 09:08:16;;;;;;;5.20;4.80;;;;;;;29.29;45.60;98355.66;261931;1090;21470;-73
2021/06/20 09:13:19;;;;;;;5.35;4.85;;;;;;;29.37;45.54;98362.58;262388;1089;22863;-73
2021/06/20 09:18:25;;;;;;;5.88;5.43;;;;;;;29.49;45.37;98352.86;262432;1089;23420;-73
2021/06/20 09:23:39;;;;;;;6.33;5.73;;;;;;;29.66;45.04;98356.44;262448;1090;22875;-73
2021/06/20 09:28:42;;;;;;;6.13;5.63;;;;;;;29.83;44.70;98358.04;262438;1090;22915;-74
2021/06/20 09:33:48;;;;;;;5.28;4.85;;;;;;;30.05;44.37;98352.04;262146;1089;22788;-73
2021/06/20 09:38:51;;;;;;;7.28;5.90;;;;;;;30.16;44.38;98349.03;262524;1089;22789;-74
2021/06/20 09:43:56;;;;;;;5.70;5.28;;;;;;;30.28;44.04;98353.09;261826;1090;25909;-73
2021/06/20 09:48:59;;;;;;;5.68;5.05;;;;;;;30.46;43.52;98360.95;262834;1089;22825;-72
2021/06/20 09:54:15;;;;;;;5.53;5.03;;;;;;;30.68;43.08;98361.98;262413;1090;25993;-74
2021/06/20 09:59:31;;;;;;;5.25;4.85;;;;;;;30.77;42.16;98357.81;262472;1090;24348;-73
2021/06/20 10:04:50;;;;;;;7.35;6.65;;;;;;;30.77;41.66;98358.58;262619;1089;22788;-72
2021/06/20 10:09:58;;;;;;;5.37;4.90;;;;;;;30.86;41.62;98353.21;261893;1090;23014;-73
2021/06/20 10:15:10;;;;;;;5.63;5.23;;;;;;;30.98;40.67;98359.22;262395;1089;23751;-73
2021/06/20 10:20:14;;;;;;;5.95;5.43;;;;;;;31.15;41.37;98365.50;261904;1090;22801;-73
2021/06/20 10:25:42;;;;;;;5.77;5.37;;;;;;;31.33;41.45;98370.53;262906;1088;22790;-74
2021/06/20 10:30:47;;;;;;;5.30;4.80;;;;;;;31.52;40.77;98366.80;262286;1088;24055;-75
2021/06/20 10:36:20;;;;;;;5.43;5.03;;;;;;;31.75;39.78;98362.20;262390;1089;22940;-73
2021/06/20 10:41:28;;;;;;;5.30;4.80;;;;;;;31.95;38.96;98358.44;262493;1090;25877;-72
2021/06/20 10:46:33;;;;;;;4.65;4.23;;;;;;;32.15;39.36;98358.22;262788;1090;22780;-73
2021/06/20 10:51:42;;;;;;;5.43;5.03;;;;;;;32.20;38.56;98352.13;262826;1090;23027;-73
2021/06/20 10:57:01;;;;;;;4.90;4.53;;;;;;;32.28;38.52;98352.66;262763;1090;26168;-73
2021/06/20 11:02:38;;;;;;;5.08;4.65;;;;;;;32.33;38.30;98350.09;262347;1090;22802;-74
2021/06/20 11:08:05;;;;;;;4.53;4.15;;;;;;;32.45;36.74;98354.06;261805;1090;22919;-73
2021/06/20 11:13:20;;;;;;;6.60;4.80;;;;;;;32.50;37.05;98347.97;262232;1090;22941;-72
2021/06/20 11:18:24;;;;;;;5.20;4.80;;;;;;;32.52;36.82;98344.74;261911;1090;22847;-73
2021/06/20 11:24:05;;;;;;;4.65;4.35;;;;;;;32.73;36.62;98343.25;262729;1089;22822;-73
2021/06/20 11:29:49;;;;;;;5.15;4.65;;;;;;;32.75;35.40;98321.38;262690;1089;25890;-73
2021/06/20 11:35:20;;;;;;;4.88;4.48;;;;;;;32.82;35.37;98314.81;262451;1090;22782;-73
2021/06/20 11:40:38;;;;;;;4.38;3.98;;;;;;;33.05;35.18;98308.05;261806;1090;22794;-74
2021/06/20 11:46:05;;;;;;;4.13;3.83;;;;;;;33.11;34.25;98309.00;261885;1090;25992;-72
2021/06/20 11:51:56;;;;;;;4.75;4.35;;;;;;;33.22;34.76;98305.83;261799;1090;25899;-72
2021/06/20 11:57:11;;;;;;;4.55;4.10;;;;;;;33.22;34.36;98303.82;262420;1090;26290;-73
2021/06/20 12:02:20;;;;;;;4.35;4.05;;;;;;;33.12;33.41;98304.22;262390;1088;22812;-72
2021/06/20 12:07:31;;;;;;;4.55;4.25;;;;;;;33.26;34.24;98285.06;262894;1089;22837;-73
2021/06/20 12:13:17;;;;;;;;;;;;;;;;;;;;;
2021/06/20 12:18:55;;;;;;;;;;;;;;;;;;;;;
2021/06/20 12:25:06;;;;;;;3.50;3.20;;;;;;;33.32;32.54;98290.03;261897;1090;22959;-73
2021/06/20 12:31:31;;;;;;;3.78;3.48;;;;;;;33.40;32.00;98289.30;262604;1090;26328;-72
2021/06/20 12:36:38;;;;;;;3.28;3.05;;;;;;;33.52;32.12;98293.22;261989;1090;24365;-73
2021/06/20 12:41:56;;;;;;;3.53;3.25;;;;;;;33.67;31.41;98287.86;262305;1089;22936;-73
2021/06/20 12:47:08;;;;;;;3.28;3.08;;;;;;;33.67;31.20;98284.31;262361;1090;22783;-73
2021/06/20 12:52:35;;;;;;;3.40;3.20;;;;;;;33.53;31.15;98289.19;262477;1090;22801;-72
2021/06/20 12:58:09;;;;;;;3.28;3.08;;;;;;;33.47;31.14;98268.82;262344;1090;22780;-73
2021/06/20 13:03:31;;;;;;;4.03;3.70;;;;;;;33.48;31.37;98266.80;262353;1090;23338;-72
2021/06/20 13:08:55;;;;;;;3.23;3.03;;;;;;;33.52;31.57;98271.01;262553;1089;24489;-73
2021/06/20 13:14:23;;;;;;;3.50;3.20;;;;;;;33.63;31.49;98272.58;261839;1090;22899;-73
2021/06/20 13:19:30;;;;;;;3.78;3.40;;;;;;;33.75;31.36;98272.45;262462;1090;22789;-73
2021/06/20 13:25:39;;;;;;;3.70;3.40;;;;;;;33.76;30.73;98267.70;261766;1090;22790;-73
2021/06/20 13:31:06;;;;;;;3.68;3.38;;;;;;;33.80;30.33;98262.77;262343;1090;27099;-74
2021/06/20 13:36:29;;;;;;;3.83;3.53;;;;;;;33.85;31.15;98253.08;261889;1090;22873;-73
2021/06/20 13:41:41;;;;;;;3.83;3.50;;;;;;;34.01;31.07;98243.68;262379;1090;22825;-74
2021/06/20 13:46:50;;;;;;;3.93;3.30;;;;;;;34.03;30.72;98246.78;262714;1090;22883;-73
2021/06/20 13:52:00;;;;;;;3.85;3.48;;;;;;;33.90;30.46;98249.67;261709;1090;23353;-72
2021/06/20 13:57:40;;;;;;;3.75;3.50;;;;;;;33.75;30.65;98249.48;262393;1089;22812;-72
2021/06/20 14:02:49;;;;;;;4.00;3.70;;;;;;;33.83;30.91;98231.32;261857;1089;22806;-73
2021/06/20 14:07:52;;;;;;;4.10;3.80;;;;;;;33.89;31.18;98229.47;262329;1090;25155;-73
2021/06/20 14:12:59;;;;;;;4.18;3.88;;;;;;;33.93;30.74;98224.54;261696;1090;22779;-73
2021/06/20 14:18:07;;;;;;;3.85;3.55;;;;;;;33.93;31.06;98226.55;262681;1090;22785;-73
2021/06/20 14:23:23;;;;;;;4.37;4.07;;;;;;;34.01;31.18;98222.22;262716;1090;22805;-73
2021/06/20 14:28:29;;;;;;;4.20;3.85;;;;;;;33.88;30.13;98216.80;262682;1090;24362;-73
2021/06/20 14:33:41;;;;;;;6.50;3.90;;;;;;;33.91;30.74;98217.89;261725;1090;22789;-72
2021/06/20 14:38:45;;;;;;;3.83;3.53;;;;;;;34.13;30.92;98222.56;262340;1090;22806;-73
2021/06/20 14:43:59;;;;;;;4.38;4.05;;;;;;;34.24;30.62;98220.85;261683;1090;22884;-72
2021/06/20 14:49:06;;;;;;;4.63;4.23;;;;;;;34.35;31.00;98214.08;261875;1090;22822;-73
2021/06/20 14:54:38;;;;;;;4.18;3.88;;;;;;;34.25;29.88;98204.94;261741;1090;22942;-74
2021/06/20 14:59:57;;;;;;;4.25;3.85;;;;;;;34.27;30.50;98214.36;261822;1090;22793;-74
2021/06/20 15:05:00;;;;;;;5.33;4.38;;;;;;;34.28;30.42;98204.83;262277;1089;24330;-73
2021/06/20 15:10:16;;;;;;;4.75;4.43;;;;;;;34.27;30.08;98206.02;262381;1090;27220;-72
2021/06/20 15:15:21;;;;;;;;;;;;;;;34.31;30.93;98196.78;261873;1090;22833;-72
2021/06/20 15:20:25;;;;;;;4.40;4.10;;;;;;;34.35;30.50;98202.95;262249;1090;21969;-76
2021/06/20 15:25:36;;;;;;;4.20;3.80;;;;;;;34.27;30.20;98196.92;261817;1090;22853;-72
2021/06/20 15:30:42;;;;;;;4.35;3.95;;;;;;;34.22;30.20;98187.20;262310;1090;23721;-73
2021/06/20 15:35:46;;;;;;;4.28;3.90;;;;;;;34.20;30.06;98178.55;262032;1090;22876;-73
2021/06/20 15:40:52;;;;;;;4.38;4.08;;;;;;;34.13;29.97;98178.86;262236;1090;22790;-73
2021/06/20 15:45:56;;;;;;;4.20;3.90;;;;;;;34.01;30.24;98169.43;262615;1089;22853;-73
2021/06/20 15:51:06;;;;;;;4.30;4.00;;;;;;;33.96;30.23;98163.72;261730;1090;22942;-72
2021/06/20 15:56:10;;;;;;;4.45;4.15;;;;;;;33.83;30.05;98159.11;262507;1089;22808;-73
2021/06/20 16:01:14;;;;;;;4.70;4.30;;;;;;;33.67;30.42;98171.23;262677;1090;22806;-73
2021/06/20 16:06:18;;;;;;;4.60;4.30;;;;;;;33.54;29.77;98168.59;261948;1090;22816;-73
2021/06/20 16:11:26;;;;;;;4.05;3.65;;;;;;;33.38;30.15;98171.63;262263;1089;22780;-73
2021/06/20 16:16:31;;;;;;;5.50;4.23;;;;;;;33.36;30.47;98165.78;262654;1088;25957;-75
2021/06/20 16:21:36;;;;;;;4.60;4.20;;;;;;;33.35;30.78;98162.21;262738;1090;22838;-73
2021/06/20 16:32:27;;;;;;;4.13;3.83;;;;;;;33.13;29.95;98153.97;262001;1089;25960;-73
2021/06/20 16:37:33;;;;;;;3.90;3.60;;;;;;;33.10;29.91;98149.30;262653;1088;22863;-73
2021/06/20 16:42:37;;;;;;;4.85;4.03;;;;;;;33.02;29.67;98150.81;262336;1090;22808;-73
2021/06/20 16:47:41;;;;;;;4.63;4.20;;;;;;;32.91;29.78;98148.48;262725;1089;24353;-73
2021/06/20 16:52:45;;;;;;;3.85;3.55;;;;;;;32.70;30.31;98144.53;262280;1090;26012;-72
2021/06/20 16:57:49;;;;;;;4.45;3.88;;;;;;;32.48;31.16;98148.06;262287;1090;22877;-73
2021/06/20 17:02:55;;;;;;;4.20;3.90;;;;;;;32.48;30.96;98138.98;261731;1089;25806;-73
2021/06/20 17:08:01;;;;;;;4.25;3.63;;;;;;;33.11;30.90;98142.53;262714;1090;27455;-72
2021/06/20 17:13:06;;;;;;;3.87;3.57;;;;;;;34.12;30.26;98135.63;261937;1089;22814;-73
2021/06/20 17:18:11;;;;;;;4.08;3.78;;;;;;;34.79;29.34;98121.92;262469;1090;22828;-73
2021/06/20 17:23:15;;;;;;;3.70;3.48;;;;;;;35.10;29.73;98115.31;262561;1088;22846;-73
2021/06/20 17:28:19;;;;;;;3.80;3.50;;;;;;;36.05;29.19;98121.35;262391;1090;22812;-75
2021/06/20 17:33:23;;;;;;;3.60;3.40;;;;;;;36.87;28.11;98117.44;262316;1090;22805;-73
2021/06/20 17:38:28;;;;;;;5.85;3.45;;;;;;;36.25;27.29;98123.51;262005;1090;22840;-71
2021/06/20 17:43:32;;;;;;;3.50;3.30;;;;;;;34.81;27.74;98115.91;261771;1090;24273;-74
2021/06/20 17:48:36;;;;;;;3.55;3.25;;;;;;;33.38;29.32;98127.22;262357;1089;22785;-73
2021/06/20 17:53:42;;;;;;;4.15;3.85;;;;;;;32.28;30.80;98128.21;262412;1090;25899;-74
2021/06/20 17:58:45;;;;;;;4.13;3.83;;;;;;;31.43;32.10;98120.39;261817;1090;24480;-73
2021/06/20 18:03:48;;;;;;;4.33;4.03;;;;;;;30.71;33.17;98120.62;262672;1090;22800;-72
2021/06/20 18:08:52;;;;;;;5.30;4.83;;;;;;;29.99;34.39;98119.84;262749;1089;22784;-73
2021/06/20 18:13:55;;;;;;;4.58;4.18;;;;;;;29.38;35.04;98137.95;262398;1090;25640;-73
2021/06/20 18:19:01;;;;;;;4.33;3.98;;;;;;;28.98;35.99;98144.34;262731;1090;22811;-72
2021/06/20 18:24:08;;;;;;;8.48;7.58;;;;;;;28.64;37.05;98134.45;262312;1090;22787;-73
2021/06/20 18:29:12;;;;;;;6.10;4.20;;;;;;;28.30;37.93;98134.71;262472;1090;25393;-72
2021/06/20 18:34:16;;;;;;;5.30;4.30;;;;;;;27.93;38.60;98142.84;262839;1090;22806;-73
2021/06/20 18:39:23;;;;;;;4.63;4.20;;;;;;;27.60;40.06;98139.09;262710;1090;22782;-73
2021/06/20 18:44:42;;;;;;;4.77;4.30;;;;;;;27.24;41.02;98134.92;262391;1088;22794;-72
2021/06/20 18:49:52;;;;;;;4.60;4.20;;;;;;;26.92;41.86;98151.89;261739;1090;22786;-72
2021/06/20 18:55:07;;;;;;;4.85;4.45;;;;;;;26.64;42.89;98153.79;262661;1090;24054;-74
2021/06/20 19:00:14;;;;;;;;;;;;;;;26.43;43.76;98158.34;262789;1089;22809;-75
2021/06/20 19:05:46;;;;;;;7.28;4.38;;;;;;;26.21;44.17;98160.55;262417;1090;24636;-72
2021/06/20 19:10:51;;;;;;;5.33;4.70;;;;;;;26.05;44.82;98163.86;262457;1090;24025;-72
2021/06/20 19:16:15;;;;;;;6.33;5.70;;;;;;;25.86;45.65;98167.92;262010;1089;22809;-72
2021/06/20 19:21:21;;;;;;;4.38;4.00;;;;;;;25.66;45.87;98159.48;262684;1090;26439;-71
2021/06/20 19:26:34;;;;;;;4.50;4.10;;;;;;;25.43;46.28;98171.02;261885;1090;22868;-74
2021/06/20 19:31:44;;;;;;;4.50;4.10;;;;;;;25.24;47.13;98177.78;262412;1090;22847;-73
2021/06/20 19:36:47;;;;;;;4.15;3.75;;;;;;;25.12;47.54;98179.02;261787;1090;22920;-72
2021/06/20 19:41:51;;;;;;;3.93;3.63;;;;;;;24.98;47.60;98185.36;261949;1090;24327;-71
2021/06/20 19:47:02;;;;;;;6.50;5.90;;;;;;;24.89;48.06;98179.52;262319;1090;24502;-73
2021/06/20 19:52:08;;;;;;;8.25;7.45;;;;;;;24.76;48.21;98177.26;262431;1090;22833;-72
2021/06/20 19:57:15;;;;;;;3.83;3.45;;;;;;;24.67;48.24;98189.81;262719;1090;23022;-72
2021/06/20 20:02:25;;;;;;;3.60;3.33;;;;;;;24.57;48.22;98194.89;262351;1090;25957;-72
2021/06/20 20:07:42;;;;;;;3.90;3.50;;;;;;;24.46;48.39;98204.33;262293;1090;22793;-72
2021/06/20 20:13:01;;;;;;;5.05;3.93;;;;;;;24.28;48.83;98196.93;262387;1090;22804;-72
2021/06/20 20:18:06;;;;;;;4.97;3.67;;;;;;;24.12;48.89;98199.30;262268;1090;25845;-73
2021/06/20 20:23:15;;;;;;;4.03;3.65;;;;;;;23.94;49.27;98193.84;261828;1090;22836;-72
2021/06/20 20:28:18;;;;;;;4.37;3.97;;;;;;;23.75;49.61;98196.55;262733;1089;22880;-72
2021/06/20 20:33:21;;;;;;;3.90;3.60;;;;;;;23.60;50.20;98194.98;261874;1090;22928;-72
2021/06/20 20:38:28;;;;;;;4.80;4.08;;;;;;;23.48;50.72;98190.70;262310;1089;22956;-72
2021/06/20 20:43:33;;;;;;;5.03;4.57;;;;;;;23.35;50.99;98197.70;261895;1090;22815;-72
2021/06/20 20:48:37;;;;;;;5.40;3.80;;;;;;;23.22;51.08;98197.29;262391;1090;22788;-73
2021/06/20 20:53:49;;;;;;;3.75;3.45;;;;;;;23.09;51.32;98198.80;262432;1089;23266;-72
2021/06/20 20:58:59;;;;;;;3.88;3.58;;;;;;;22.93;51.69;98183.55;262746;1090;25832;-73
2021/06/20 21:04:02;;;;;;;3.90;3.45;;;;;;;22.82;52.55;98177.23;262412;1089;22812;-72
2021/06/20 21:09:24;;;;;;;4.00;3.57;;;;;;;22.75;52.81;98169.83;261823;1089;25960;-74
2021/06/20 21:14:35;;;;;;;5.53;3.47;;;;;;;22.68;53.26;98167.84;262665;1089;23625;-72
2021/06/20 21:19:39;;;;;;;4.33;3.80;;;;;;;22.62;53.55;98158.45;262412;1090;24473;-72
2021/06/20 21:24:42;;;;;;;4.98;4.48;;;;;;;22.54;53.77;98168.56;262403;1090;24461;-73
2021/06/20 21:29:46;;;;;;;4.03;3.73;;;;;;;22.47;53.82;98178.66;262718;1089;24467;-73
2021/06/20 21:34:49;;;;;;;5.35;4.13;;;;;;;22.38;54.29;98174.36;262785;1089;22860;-73
2021/06/20 21:39:58;;;;;;;4.63;4.00;;;;;;;22.29;54.55;98173.10;262698;1089;22814;-73
2021/06/20 21:45:02;;;;;;;4.75;4.33;;;;;;;22.20;54.97;98178.88;262310;1090;25989;-76
2021/06/20 21:50:27;;;;;;;4.40;3.75;;;;;;;22.11;54.86;98167.53;262632;1089;22827;-73
2021/06/20 21:55:47;;;;;;;3.88;3.55;;;;;;;22.02;55.72;98163.20;262392;1090;22783;-71
2021/06/20 22:01:10;;;;;;;4.68;4.28;;;;;;;21.96;56.14;98158.47;262074;1089;22786;-73
2021/06/20 22:06:14;;;;;;;4.33;4.03;;;;;;;21.87;56.08;98158.81;262313;1090;26477;-73
2021/06/20 22:12:31;;;;;;;4.95;4.08;;;;;;;21.80;56.49;98156.81;261893;1090;22786;-74
2021/06/20 22:17:47;;;;;;;4.30;3.43;;;;;;;21.69;56.60;98155.95;262640;1090;22763;-72
2021/06/20 22:23:16;;;;;;;4.35;3.95;;;;;;;21.66;57.26;98140.36;262744;1090;22913;-73
2021/06/20 22:29:02;;;;;;;4.38;3.98;;;;;;;21.66;57.69;98132.19;261767;1090;22813;-71
2021/06/20 22:34:14;;;;;;;4.50;4.10;;;;;;;21.61;57.80;98122.39;262600;1089;22867;-73
2021/06/20 22:39:30;;;;;;;5.48;4.60;;;;;;;21.53;57.82;98120.77;262390;1089;22793;-73
2021/06/20 22:44:49;;;;;;;5.23;4.70;;;;;;;21.48;58.31;98107.48;262628;1089;25739;-75
2021/06/20 22:50:12;;;;;;;5.83;5.07;;;;;;;21.40;58.62;98103.91;262719;1090;23055;-73
2021/06/20 22:55:45;;;;;;;;;;;;;;;;;;;;;
2021/06/20 23:01:11;;;;;;;4.63;4.23;;;;;;;21.22;59.78;98092.09;261726;1090;24214;-72
2021/06/20 23:06:34;;;;;;;5.33;4.90;;;;;;;21.14;59.83;98091.23;262420;1089;22972;-72
2021/06/20 23:11:40;;;;;;;5.68;5.08;;;;;;;21.03;60.56;98091.16;261717;1090;24205;-71
2021/06/20 23:16:57;;;;;;;5.38;4.75;;;;;;;20.96;61.02;98094.59;262278;1090;27551;-71
2021/06/20 23:22:29;;;;;;;5.73;5.23;;;;;;;20.87;61.02;98091.38;261818;1090;25880;-73
2021/06/20 23:27:52;;;;;;;;;;;;;;;;;;;;;
2021/06/20 23:33:25;;;;;;;7.43;5.17;;;;;;;20.71;62.05;98082.67;262437;1090;22798;-75
2021/06/20 23:38:46;;;;;;;5.80;5.10;;;;;;;20.64;62.17;98078.67;262310;1090;24077;-73
2021/06/20 23:44:22;;;;;;;6.13;5.53;;;;;;;20.59;62.89;98068.12;262761;1090;22914;-72
2021/06/20 23:49:30;;;;;;;6.40;5.88;;;;;;;20.57;63.44;98061.50;262631;1090;22876;-73
2021/06/20 23:54:57;;;;;;;;;;;;;;;20.51;63.83;98050.95;261771;1090;22966;-72
